LGKR/CFU METAR and TAF weather

Enter ICAO airport designator
Station Type Date Time Source
LGKR METAR 2019/04/19 08:20 UTC NOAA

LGKR 190820Z 15004KT 9999 FEW020 18/11 Q1025 NOSIG


Station Type Date Time Source
LGKR Decoded METAR 2019/04/19 08:20 UTC NOAA

Kerkyra Airport , Greece (LGKR) 39-37N 019-55E 4M
Apr 19, 2019 - 04:20 AM EDT / 2019.04.19 0820 UTC
Wind: from the SSE (150 degrees) at 5 MPH (4 KT):0
Visibility: greater than 7 mile(s):0
Sky conditions: mostly clear
Temperature: 64 F (18 C)
Dew Point: 51 F (11 C)
Relative Humidity: 63%
Pressure (altimeter): 30.27 in. Hg (1025 hPa)
ob: LGKR 190820Z 15004KT 9999 FEW020 18/11 Q1025 NOSIG
cycle: 8

Station Type Date Time Source
LGKR TAF 2019/04/19 06:16 UTC NOAA

TAF LGKR 190500Z 1906/2006 12010KT 9999 SCT020
BECMG 1910/1912 27012KT
BECMG 1916/1918 33015KT
BECMG 1922/1924 VRB05KT

Example: see airport list